createdAt,value
2018-05-01T00:00:54.058Z,0.60
2018-05-01T00:05:55.057Z,0.70
2018-05-01T00:10:56.065Z,0.80
2018-05-01T00:15:57.105Z,0.70
2018-05-01T00:20:58.824Z,0.80
2018-05-01T00:25:59.848Z,0.80
2018-05-01T00:31:00.869Z,0.70
2018-05-01T00:36:01.880Z,1.00
2018-05-01T00:41:02.890Z,0.87
2018-05-01T00:46:03.902Z,0.60
2018-05-01T00:51:04.958Z,0.67
2018-05-01T00:56:05.974Z,0.70
2018-05-01T01:01:06.965Z,0.90
2018-05-01T01:06:07.994Z,0.77
2018-05-01T01:11:08.989Z,1.20
2018-05-01T01:16:09.990Z,1.10
2018-05-01T01:21:11.007Z,0.70
2018-05-01T01:26:12.001Z,0.80
2018-05-01T01:31:13.012Z,0.67
2018-05-01T01:36:13.919Z,0.93
2018-05-01T01:41:14.790Z,0.90
2018-05-01T01:46:15.708Z,0.90
2018-05-01T01:51:16.580Z,1.10
2018-05-01T01:56:17.449Z,1.20
2018-05-01T02:01:18.325Z,1.03
2018-05-01T02:06:19.925Z,1.20
2018-05-01T02:11:20.797Z,1.10
2018-05-01T02:16:21.664Z,1.20
2018-05-01T02:21:22.533Z,1.20
2018-05-01T02:26:23.463Z,1.10
2018-05-01T02:31:24.330Z,1.13
2018-05-01T02:36:25.214Z,1.20
2018-05-01T02:41:26.819Z,1.17
2018-05-01T02:46:27.701Z,1.13
2018-05-01T02:51:28.580Z,1.10
2018-05-01T02:56:29.449Z,1.40
2018-05-01T03:01:31.053Z,1.20
2018-05-01T03:06:31.930Z,1.20
2018-05-01T03:11:32.800Z,1.30
2018-05-01T03:16:33.665Z,1.37
2018-05-01T03:21:34.538Z,1.10
2018-05-01T03:26:35.406Z,1.30
2018-05-01T03:31:37.020Z,1.30
2018-05-01T03:36:37.878Z,1.67
2018-05-01T03:41:38.749Z,1.50
2018-05-01T03:46:39.609Z,1.57
2018-05-01T03:51:40.473Z,1.67
2018-05-01T03:56:41.334Z,1.70
2018-05-01T04:01:42.190Z,1.47
2018-05-01T04:06:43.807Z,1.50
2018-05-01T04:11:44.666Z,2.07
2018-05-01T04:16:45.530Z,1.40
2018-05-01T04:21:46.393Z,1.50
2018-05-01T04:26:47.257Z,1.40
2018-05-01T04:31:48.122Z,1.40
2018-05-01T04:36:49.011Z,1.57
2018-05-01T04:41:50.637Z,1.47
2018-05-01T04:46:51.498Z,1.60
2018-05-01T04:51:52.378Z,1.87
2018-05-01T04:56:53.994Z,1.70
2018-05-01T05:01:54.862Z,1.87
2018-05-01T05:06:55.731Z,1.70
2018-05-01T05:11:56.602Z,2.00
2018-05-01T05:16:58.229Z,1.90
2018-05-01T05:21:59.097Z,1.83
2018-05-01T05:26:59.974Z,1.90
2018-05-01T05:32:00.847Z,1.70
2018-05-01T05:37:02.451Z,1.40
2018-05-01T05:42:03.310Z,1.60
2018-05-01T05:47:04.330Z,1.77
2018-05-01T05:52:05.933Z,1.63
2018-05-01T05:57:06.827Z,1.80
2018-05-01T06:02:07.701Z,1.80
2018-05-01T06:07:09.342Z,1.90
2018-05-01T06:12:10.218Z,1.70
2018-05-01T06:17:11.191Z,1.90
2018-05-01T06:22:12.839Z,1.73
2018-05-01T06:27:13.714Z,1.80
2018-05-01T06:32:14.581Z,1.97
2018-05-01T06:37:16.205Z,1.90
2018-05-01T06:42:17.071Z,2.10
2018-05-01T06:47:17.940Z,1.80
2018-05-01T06:52:18.814Z,2.13
2018-05-01T06:57:20.438Z,2.00
2018-05-01T07:02:21.329Z,2.00
2018-05-01T07:07:22.222Z,2.20
2018-05-01T07:12:23.105Z,2.10
2018-05-01T07:17:25.681Z,2.37
2018-05-01T07:22:26.991Z,2.30
2018-05-01T07:27:27.872Z,1.97
2018-05-01T07:32:29.510Z,2.50
2018-05-01T07:37:30.422Z,1.97
2018-05-01T07:42:31.310Z,2.80
2018-05-01T07:47:32.178Z,2.70
2018-05-01T07:52:33.051Z,2.20
2018-05-01T07:57:33.969Z,2.70
2018-05-01T08:02:34.891Z,2.20
2018-05-01T08:07:35.802Z,2.30
2018-05-01T08:12:36.669Z,2.13
2018-05-01T08:17:37.563Z,2.30
2018-05-01T08:22:38.426Z,2.63
2018-05-01T08:27:39.300Z,2.70
2018-05-01T08:32:40.169Z,2.37
2018-05-01T08:37:41.108Z,2.37
2018-05-01T08:42:41.927Z,2.40
2018-05-01T08:47:42.790Z,2.93
2018-05-01T08:52:43.661Z,3.27
2018-05-01T08:57:44.537Z,2.50
2018-05-01T09:02:45.419Z,2.80
2018-05-01T09:07:47.017Z,2.80
2018-05-01T09:12:47.886Z,2.67
2018-05-01T09:17:48.870Z,3.10
2018-05-01T09:22:49.680Z,3.53
2018-05-01T09:27:50.553Z,2.83
2018-05-01T09:32:51.426Z,2.70
2018-05-01T09:37:52.322Z,2.10
2018-05-01T09:42:53.942Z,2.37
2018-05-01T09:47:54.849Z,2.07
2018-05-01T09:52:56.621Z,1.90
2018-05-01T09:57:58.386Z,2.30
2018-05-01T10:02:59.386Z,1.80
2018-05-01T10:08:00.373Z,1.73
2018-05-01T10:13:01.370Z,2.23
2018-05-01T10:18:03.122Z,2.10
2018-05-01T10:23:04.125Z,1.70
2018-05-01T10:28:05.161Z,1.73
2018-05-01T10:33:06.958Z,1.77
2018-05-01T10:38:07.937Z,2.17
2018-05-01T10:43:08.936Z,2.20
2018-05-01T10:48:09.917Z,2.07
2018-05-01T10:53:11.649Z,1.87
2018-05-01T10:58:12.658Z,2.70
2018-05-01T11:03:13.656Z,2.50
2018-05-01T11:08:14.642Z,4.63
2018-05-01T11:13:15.646Z,2.87
2018-05-01T11:18:17.583Z,3.87
2018-05-01T11:23:18.717Z,2.57
2018-05-01T11:28:19.701Z,2.17
2018-05-01T11:33:20.683Z,2.10
2018-05-01T11:38:22.419Z,2.30
2018-05-01T11:43:23.411Z,2.70
2018-05-01T11:48:25.146Z,2.23
2018-05-01T11:53:26.135Z,2.27
2018-05-01T11:58:27.889Z,2.43
2018-05-01T12:03:28.904Z,2.80
2018-05-01T12:08:29.906Z,2.27
2018-05-01T12:13:30.904Z,2.70
2018-05-01T12:18:32.689Z,2.90
2018-05-01T12:23:33.651Z,2.00
2018-05-01T12:28:34.641Z,2.57
2018-05-01T12:33:35.646Z,2.53
2018-05-01T12:38:36.654Z,2.70
2018-05-01T12:43:37.679Z,2.47
2018-05-01T12:48:38.685Z,2.20
2018-05-01T12:53:39.685Z,2.63
2018-05-01T12:58:40.667Z,3.00
2018-05-01T13:03:41.657Z,2.97
2018-05-01T13:08:42.657Z,2.70
2018-05-01T13:13:43.650Z,2.13
2018-05-01T13:18:44.635Z,2.73
2018-05-01T13:23:45.642Z,2.40
2018-05-01T13:28:46.627Z,2.83
2018-05-01T13:33:47.614Z,2.70
2018-05-01T13:38:48.688Z,2.67
2018-05-01T13:43:50.417Z,2.27
2018-05-01T13:48:51.450Z,4.90
2018-05-01T13:53:52.455Z,2.90
2018-05-01T13:58:53.462Z,2.70
2018-05-01T14:03:54.480Z,2.67
2018-05-01T14:08:55.510Z,2.70
2018-05-01T14:13:56.531Z,2.90
2018-05-01T14:18:57.513Z,3.23
2018-05-01T14:23:58.497Z,2.30
2018-05-01T14:28:59.484Z,2.90
2018-05-01T14:34:01.216Z,2.53
2018-05-01T14:39:02.234Z,2.30
2018-05-01T14:44:03.238Z,2.47
2018-05-01T14:49:04.241Z,2.33
2018-05-01T14:54:05.231Z,3.00
2018-05-01T14:59:06.239Z,2.23
2018-05-01T15:04:08.062Z,2.57
2018-05-01T15:09:09.060Z,2.30
2018-05-01T15:14:10.054Z,2.20
2018-05-01T15:19:11.030Z,2.33
2018-05-01T15:24:12.028Z,2.57
2018-05-01T15:29:13.018Z,3.20
2018-05-01T15:34:14.018Z,2.87
2018-05-01T15:39:15.019Z,2.83
2018-05-01T15:44:16.770Z,2.30
2018-05-01T15:49:17.772Z,2.30
2018-05-01T15:54:18.823Z,2.70
2018-05-01T15:59:19.841Z,2.60
2018-05-01T16:04:20.875Z,2.63
2018-05-01T16:09:21.977Z,2.40
2018-05-01T16:14:23.137Z,2.60
2018-05-01T16:19:24.525Z,2.37
2018-05-01T16:24:25.586Z,2.60
2018-05-01T16:29:27.347Z,2.50
2018-05-01T16:34:28.450Z,2.60
2018-05-01T16:39:29.474Z,2.60
2018-05-01T16:44:31.230Z,2.53
2018-05-01T16:49:32.978Z,2.47
2018-05-01T16:54:33.991Z,2.50
2018-05-01T16:59:35.003Z,2.50
2018-05-01T17:04:35.990Z,2.43
2018-05-01T17:09:37.735Z,2.50
2018-05-01T17:14:38.826Z,2.40
2018-05-01T17:19:39.922Z,2.20
2018-05-01T17:24:40.933Z,2.53
2018-05-01T17:29:42.703Z,2.93
2018-05-01T17:34:43.685Z,2.23
2018-05-01T17:39:45.441Z,2.33
2018-05-01T17:44:46.465Z,2.43
2018-05-01T17:49:47.500Z,2.30
2018-05-01T17:54:48.530Z,2.20
2018-05-01T17:59:50.275Z,2.10
2018-05-01T18:04:51.287Z,2.20
2018-05-01T18:09:52.290Z,2.27
2018-05-01T18:14:53.301Z,2.33
2018-05-01T18:19:54.310Z,2.23
2018-05-01T18:24:55.321Z,2.77
2018-05-01T18:29:56.317Z,2.50
2018-05-01T18:34:57.325Z,2.70
2018-05-01T18:39:58.345Z,2.13
2018-05-01T18:44:59.357Z,3.87
2018-05-01T18:50:00.367Z,2.80
2018-05-01T18:55:01.392Z,3.20
2018-05-01T19:00:02.398Z,2.50
2018-05-01T19:05:04.142Z,2.77
2018-05-01T19:10:05.138Z,2.40
2018-05-01T19:15:06.133Z,2.40
2018-05-01T19:20:07.142Z,2.47
2018-05-01T19:25:08.151Z,2.20
2018-05-01T19:30:09.151Z,3.10
2018-05-01T19:35:10.916Z,3.00
2018-05-01T19:40:11.918Z,2.60
2018-05-01T19:45:12.931Z,2.90
2018-05-01T19:50:13.938Z,2.93
2018-05-01T19:55:14.929Z,2.87
2018-05-01T20:00:15.926Z,3.00
2018-05-01T20:05:16.955Z,2.57
2018-05-01T20:10:18.718Z,2.77
2018-05-01T20:15:19.817Z,2.37
2018-05-01T20:20:20.818Z,3.03
2018-05-01T20:25:21.818Z,3.10
2018-05-01T20:30:23.668Z,2.63
2018-05-01T20:35:24.599Z,2.67
2018-05-01T20:40:25.606Z,2.70
2018-05-01T20:45:27.354Z,2.87
2018-05-01T20:50:28.434Z,2.87
2018-05-01T20:55:29.475Z,3.20
2018-05-01T21:00:30.481Z,2.70
2018-05-01T21:05:31.514Z,2.90
2018-05-01T21:10:32.527Z,3.10
2018-05-01T21:15:33.575Z,3.00
2018-05-01T21:20:34.630Z,2.73
2018-05-01T21:25:35.663Z,3.20
2018-05-01T21:30:36.841Z,3.17
2018-05-01T21:35:37.849Z,3.20
2018-05-01T21:40:38.851Z,2.80
2018-05-01T21:45:40.717Z,2.80
2018-05-01T21:50:42.486Z,2.43
2018-05-01T21:55:44.276Z,2.53
2018-05-01T22:00:46.018Z,2.53
2018-05-01T22:05:47.014Z,2.50
2018-05-01T22:10:48.820Z,2.70
2018-05-01T22:15:49.833Z,2.33
2018-05-01T22:20:51.571Z,2.33
2018-05-01T22:25:52.576Z,2.60
2018-05-01T22:30:54.368Z,1.97
2018-05-01T22:35:56.886Z,2.27
2018-05-01T22:40:57.884Z,2.60
2018-05-01T22:45:58.938Z,2.63
2018-05-01T22:51:00.751Z,2.43
2018-05-01T22:56:01.899Z,2.53
2018-05-01T23:01:03.730Z,2.37
2018-05-01T23:06:04.749Z,2.30
2018-05-01T23:11:05.802Z,2.50
2018-05-01T23:16:06.810Z,2.20
2018-05-01T23:21:07.846Z,2.23
2018-05-01T23:26:08.861Z,2.13
2018-05-01T23:31:10.598Z,2.27
2018-05-01T23:36:11.622Z,2.47
2018-05-01T23:41:12.643Z,2.50
2018-05-01T23:46:13.647Z,2.70
2018-05-01T23:51:14.653Z,2.93
2018-05-01T23:56:15.662Z,2.90
